Terminal Aerodrome Forecast
Issued by NWS

Home | Current Version | Previous Version | Graphics & Text | Print | Product List | Glossary On
Versions: 1 2 3 4 5 6 7 8 9 10 11 12 13 14 15 16
000
FTUS43 KGRB 251126
TAFRHI
TAF
KRHI 251126Z 2512/2612 22006KT P6SM SCT050 BKN100
      TEMPO 2512/2514 4SM TSRA BR SCT030CB BKN050
     FM251400 22009KT P6SM SCT050 BKN100
     FM251700 23011G17KT P6SM VCTS SCT040CB BKN080
     FM252000 23011G17KT P6SM VCSH SCT035 OVC060
      TEMPO 2520/2524 3SM +TSRA BKN025CB
     FM260000 23008KT P6SM VCSH SCT040 BKN080
     FM260800 25004KT 5SM BR SCT009 OVC018
      TEMPO 2608/2612 2SM BR BKN009=

USA.gov is the U.S. government's official web portal to all federal, state and local government web resources and services.